Time;durP1;ratioP1;P1;durP2;ratioP2;P2;SDS_P1;SDS_P2;PMS_P1;PMS_P2;Temp;Humidity;BMP_temperature;BMP_pressure;BME280_temperature;BME280_humidity;BME280_pressure;Samples;Min_cycle;Max_cycle;Signal;HPM_P1;HPM_P2
2024/04/10 00:01:06;;;;;;;;;;;9.60;99.90;;;;;;5392967;26;20357;-73
2024/04/10 00:03:31;;;;;;;;;;;9.50;99.90;;;;;;5399876;26;19930;-73
2024/04/10 00:05:58;;;;;;;;;;;9.50;99.90;;;;;;5385355;26;19929;-73
2024/04/10 00:08:23;;;;;;;;;;;9.60;99.90;;;;;;5415015;26;20056;-73
2024/04/10 00:10:49;;;;;;;;;;;9.80;99.90;;;;;;5402898;26;19936;-73
2024/04/10 00:13:15;;;;;;;;;;;9.80;99.90;;;;;;5381609;26;20269;-73
2024/04/10 00:15:40;;;;;;;;;;;9.70;99.90;;;;;;5390211;26;20432;-74
2024/04/10 00:18:06;;;;;;;;;;;9.90;99.90;;;;;;5392929;26;19937;-73
2024/04/10 00:20:31;;;;;;;;;;;9.90;99.90;;;;;;5395317;26;19962;-73
2024/04/10 00:22:57;;;;;;;;;;;9.50;99.90;;;;;;5350625;26;19999;-74
2024/04/10 00:25:22;;;;;;;;;;;9.30;99.90;;;;;;5382026;26;19941;-73
2024/04/10 00:27:48;;;;;;;;;;;9.10;99.90;;;;;;5377844;26;19930;-74
2024/04/10 00:30:13;;;;;;;;;;;9.10;99.90;;;;;;5382486;26;19936;-74
2024/04/10 00:32:39;;;;;;;;;;;9.10;99.90;;;;;;5384208;26;19936;-73
2024/04/10 00:35:04;;;;;;;;;;;9.40;99.90;;;;;;5379479;26;19937;-74
2024/04/10 00:37:30;;;;;;;;;;;9.40;99.90;;;;;;5384016;26;19971;-73
2024/04/10 00:39:55;;;;;;;;;;;9.30;99.90;;;;;;5381019;26;19929;-73
2024/04/10 00:42:22;;;;;;;;;;;9.30;99.90;;;;;;5383175;26;19936;-74
2024/04/10 00:44:54;;;;;;;;;;;9.30;99.90;;;;;;5360063;26;19938;-74
2024/04/10 00:47:20;;;;;;;;;;;9.20;99.90;;;;;;5381641;26;20261;-74
2024/04/10 00:49:46;;;;;;;;;;;9.50;99.90;;;;;;5380717;26;20305;-73
2024/04/10 00:52:11;;;;;;;;;;;9.60;99.90;;;;;;5378190;26;19929;-73
2024/04/10 00:54:38;;;;;;;;;;;9.60;99.90;;;;;;5379843;26;20368;-73
2024/04/10 00:57:04;;;;;;;;;;;9.50;99.90;;;;;;5378343;26;19930;-74
2024/04/10 00:59:30;;;;;;;;;;;9.40;99.90;;;;;;5380980;26;20002;-73
2024/04/10 01:01:55;;;;;;;;;;;9.60;99.90;;;;;;5404603;26;19961;-74
2024/04/10 01:04:21;;;;;;;;;;;9.50;99.90;;;;;;5365984;26;20103;-73
2024/04/10 01:06:46;;;;;;;;;;;9.20;99.90;;;;;;5370879;26;19933;-73
2024/04/10 01:09:12;;;;;;;;;;;9.00;99.90;;;;;;5383876;26;19941;-74
2024/04/10 01:11:37;;;;;;;;;;;9.20;99.90;;;;;;5366025;26;19937;-74
2024/04/10 01:14:03;;;;;;;;;;;9.50;99.90;;;;;;5382449;26;20280;-73
2024/04/10 01:16:30;;;;;;;;;;;9.60;99.90;;;;;;5368364;26;19937;-74
2024/04/10 01:18:56;;;;;;;;;;;9.40;99.90;;;;;;5395938;26;19929;-74
2024/04/10 01:21:21;;;;;;;;;;;9.20;99.90;;;;;;5379684;26;19936;-73
2024/04/10 01:23:47;;;;;;;;;;;9.10;99.90;;;;;;5374883;26;19930;-73
2024/04/10 01:26:13;;;;;;;;;;;9.10;99.90;;;;;;5378151;26;19930;-74
2024/04/10 01:28:38;;;;;;;;;;;9.30;99.90;;;;;;5356279;26;19942;-74
2024/04/10 01:31:04;;;;;;;;;;;9.40;99.90;;;;;;5403368;26;19935;-74
2024/04/10 01:33:29;;;;;;;;;;;9.40;99.90;;;;;;5415775;26;20281;-73
2024/04/10 01:35:55;;;;;;;;;;;9.50;99.90;;;;;;5389937;26;19941;-74
2024/04/10 01:38:23;;;;;;;;;;;9.40;99.90;;;;;;5378363;26;20106;-73
2024/04/10 01:40:48;;;;;;;;;;;9.40;99.90;;;;;;5377968;26;19930;-72
2024/04/10 01:43:14;;;;;;;;;;;9.30;99.90;;;;;;5380271;26;19930;-72
2024/04/10 01:45:40;;;;;;;;;;;9.10;99.90;;;;;;5380803;26;20363;-72
2024/04/10 01:48:05;;;;;;;;;;;9.00;99.90;;;;;;5379137;26;19956;-73
2024/04/10 01:50:31;;;;;;;;;;;8.90;99.90;;;;;;5378477;26;20333;-73
2024/04/10 01:52:57;;;;;;;;;;;9.00;99.90;;;;;;5358902;26;19935;-72
2024/04/10 01:55:22;;;;;;;;;;;9.00;99.90;;;;;;5382245;26;19930;-73
2024/04/10 01:57:48;;;;;;;;;;;9.00;99.90;;;;;;5379940;26;19937;-73
2024/04/10 02:00:18;;;;;;;;;;;9.00;99.90;;;;;;5380347;26;20033;-73
2024/04/10 02:02:45;;;;;;;;;;;9.20;99.90;;;;;;5377994;26;20291;-73
2024/04/10 02:05:10;;;;;;;;;;;9.10;99.90;;;;;;5402494;26;19929;-73
2024/04/10 02:07:36;;;;;;;;;;;9.00;99.90;;;;;;5401644;26;19957;-73
2024/04/10 02:10:01;;;;;;;;;;;8.90;99.90;;;;;;5402033;26;19929;-73
2024/04/10 02:12:27;;;;;;;;;;;9.00;99.90;;;;;;5393326;26;19961;-73
2024/04/10 02:14:52;;;;;;;;;;;8.90;99.90;;;;;;5428863;26;19936;-73
2024/04/10 02:17:18;;;;;;;;;;;8.90;99.90;;;;;;5431681;26;19998;-73
2024/04/10 02:19:44;;;;;;;;;;;9.00;99.90;;;;;;5416205;26;19954;-73
2024/04/10 02:22:09;;;;;;;;;;;9.10;99.90;;;;;;5414488;26;20331;-73
2024/04/10 02:24:35;;;;;;;;;;;8.80;99.90;;;;;;5413402;26;19998;-73
2024/04/10 02:27:00;;;;;;;;;;;8.90;99.90;;;;;;5401737;26;19930;-73
2024/04/10 02:29:28;;;;;;;;;;;8.80;99.90;;;;;;5377894;26;20033;-72
2024/04/10 02:31:54;;;;;;;;;;;8.70;99.90;;;;;;5380246;26;19930;-73
2024/04/10 02:34:19;;;;;;;;;;;8.60;99.90;;;;;;5381215;26;19929;-73
2024/04/10 02:36:45;;;;;;;;;;;8.70;99.90;;;;;;5380548;26;19930;-73
2024/04/10 02:39:10;;;;;;;;;;;8.60;99.90;;;;;;5382082;26;19936;-73
2024/04/10 02:41:36;;;;;;;;;;;8.50;99.90;;;;;;5382758;26;19957;-73
2024/04/10 02:44:03;;;;;;;;;;;8.40;99.90;;;;;;5385918;26;19929;-73
2024/04/10 02:46:28;;;;;;;;;;;8.40;99.90;;;;;;5381960;26;19942;-73
2024/04/10 02:48:54;;;;;;;;;;;8.50;99.90;;;;;;5386752;26;19929;-73
2024/04/10 02:51:19;;;;;;;;;;;8.60;99.90;;;;;;5385273;26;19941;-73
2024/04/10 02:53:45;;;;;;;;;;;8.60;99.90;;;;;;5386137;26;19937;-73
2024/04/10 02:56:10;;;;;;;;;;;8.90;99.90;;;;;;5385430;26;20365;-73
2024/04/10 02:58:36;;;;;;;;;;;8.80;99.90;;;;;;5383767;26;19961;-72
2024/04/10 03:01:01;;;;;;;;;;;8.70;99.90;;;;;;5378914;26;19937;-73
2024/04/10 03:03:27;;;;;;;;;;;8.80;99.90;;;;;;5394358;26;20380;-72
2024/04/10 03:05:59;;;;;;;;;;;8.80;99.90;;;;;;5415787;26;20264;-73
2024/04/10 03:08:25;;;;;;;;;;;9.00;99.90;;;;;;5391375;26;19929;-73
2024/04/10 03:10:50;;;;;;;;;;;9.00;99.90;;;;;;5416737;26;19929;-73
2024/04/10 03:13:16;;;;;;;;;;;9.00;99.90;;;;;;5416366;26;19936;-73
2024/04/10 03:15:41;;;;;;;;;;;9.00;99.90;;;;;;5415409;26;19961;-73
2024/04/10 03:18:07;;;;;;;;;;;8.90;99.90;;;;;;5399626;26;19930;-73
2024/04/10 03:20:32;;;;;;;;;;;9.00;99.90;;;;;;5417601;26;19928;-71
2024/04/10 03:22:59;;;;;;;;;;;8.70;99.90;;;;;;5416587;26;19929;-72
2024/04/10 03:25:25;;;;;;;;;;;8.40;99.90;;;;;;5416946;26;19940;-73
2024/04/10 03:27:50;;;;;;;;;;;8.50;99.90;;;;;;5415908;26;20356;-71
2024/04/10 03:30:16;;;;;;;;;;;8.70;99.90;;;;;;5356561;26;20002;-73
2024/04/10 03:32:42;;;;;;;;;;;8.50;99.90;;;;;;5394676;26;20276;-72
2024/04/10 03:35:07;;;;;;;;;;;8.40;99.90;;;;;;5374587;26;20283;-73
2024/04/10 03:37:33;;;;;;;;;;;8.50;99.90;;;;;;5415740;26;20066;-72
2024/04/10 03:39:58;;;;;;;;;;;8.70;99.90;;;;;;5381491;26;19965;-72
2024/04/10 03:42:24;;;;;;;;;;;8.60;99.90;;;;;;5380510;26;19958;-74
2024/04/10 03:44:50;;;;;;;;;;;8.60;99.90;;;;;;5415361;26;19929;-73
2024/04/10 03:47:15;;;;;;;;;;;8.60;99.90;;;;;;5413410;26;20018;-73
2024/04/10 03:49:40;;;;;;;;;;;8.50;99.90;;;;;;5401317;26;19929;-73
2024/04/10 03:52:06;;;;;;;;;;;8.60;99.90;;;;;;5381135;26;19939;-73
2024/04/10 03:54:31;;;;;;;;;;;8.40;99.90;;;;;;5380011;26;19937;-74
2024/04/10 03:56:57;;;;;;;;;;;8.40;99.90;;;;;;5382512;26;20353;-74
2024/04/10 03:59:23;;;;;;;;;;;8.30;99.90;;;;;;5380976;26;19986;-74
2024/04/10 04:01:48;;;;;;;;;;;8.30;99.90;;;;;;5405095;26;19942;-70
2024/04/10 04:04:14;;;;;;;;;;;8.40;99.90;;;;;;5416911;26;19936;-72
2024/04/10 04:06:40;;;;;;;;;;;8.50;99.90;;;;;;5414209;26;19929;-73
2024/04/10 04:09:08;;;;;;;;;;;8.40;99.90;;;;;;5367169;26;19929;-73
2024/04/10 04:11:34;;;;;;;;;;;8.20;99.90;;;;;;5415092;26;19937;-73
2024/04/10 04:13:59;;;;;;;;;;;8.10;99.90;;;;;;5416698;26;20467;-73
2024/04/10 04:16:25;;;;;;;;;;;8.30;99.90;;;;;;5415385;26;19969;-73
2024/04/10 04:18:51;;;;;;;;;;;8.50;99.90;;;;;;5373144;26;19937;-74
2024/04/10 04:21:17;;;;;;;;;;;8.40;99.90;;;;;;5369292;26;20268;-74
2024/04/10 04:23:45;;;;;;;;;;;8.40;99.90;;;;;;5380996;26;19937;-73
2024/04/10 04:26:10;;;;;;;;;;;8.10;99.90;;;;;;5381153;26;20233;-73
2024/04/10 04:28:36;;;;;;;;;;;7.90;99.90;;;;;;5363299;26;19937;-73
2024/04/10 04:31:01;;;;;;;;;;;7.80;99.90;;;;;;5379886;26;19929;-73
2024/04/10 04:33:27;;;;;;;;;;;7.90;99.90;;;;;;5381099;26;19932;-73
2024/04/10 04:35:52;;;;;;;;;;;8.00;99.90;;;;;;5382197;26;19936;-73
2024/04/10 04:38:18;;;;;;;;;;;8.00;99.90;;;;;;5360474;26;19936;-73
2024/04/10 04:40:43;;;;;;;;;;;8.00;99.90;;;;;;5381383;26;19940;-74
2024/04/10 04:43:09;;;;;;;;;;;8.00;99.90;;;;;;5382275;26;19998;-73
2024/04/10 04:45:35;;;;;;;;;;;8.10;99.90;;;;;;5381948;26;19929;-73
2024/04/10 04:48:00;;;;;;;;;;;8.20;99.90;;;;;;5360368;26;20272;-73
2024/04/10 04:50:26;;;;;;;;;;;8.30;99.90;;;;;;5377708;26;19995;-73
2024/04/10 04:52:51;;;;;;;;;;;8.40;99.90;;;;;;5381892;26;19937;-73
2024/04/10 04:55:17;;;;;;;;;;;8.30;99.90;;;;;;5382979;26;19941;-74
2024/04/10 04:57:42;;;;;;;;;;;8.20;99.90;;;;;;5379702;26;20318;-74
2024/04/10 05:00:14;;;;;;;;;;;8.10;99.90;;;;;;5375359;26;19938;-72
2024/04/10 05:02:43;;;;;;;;;;;8.00;99.90;;;;;;5389908;26;19929;-73
2024/04/10 05:05:15;;;;;;;;;;;7.90;99.90;;;;;;5391008;26;19957;-74
2024/04/10 05:07:41;;;;;;;;;;;7.80;99.90;;;;;;5412982;26;19928;-74
2024/04/10 05:10:08;;;;;;;;;;;7.90;99.90;;;;;;5412879;26;19929;-72
2024/04/10 05:12:34;;;;;;;;;;;8.10;99.90;;;;;;5404717;26;19929;-72
2024/04/10 05:14:59;;;;;;;;;;;8.10;99.90;;;;;;5380363;26;19937;-72
2024/04/10 05:17:25;;;;;;;;;;;8.00;99.90;;;;;;5377250;26;19936;-72
2024/04/10 05:21:25;;;;;;;;;;;8.00;99.90;;;;;;5506279;25;19928;-73
2024/04/10 05:23:51;;;;;;;;;;;7.90;99.90;;;;;;5466876;26;20084;-73
2024/04/10 05:26:16;;;;;;;;;;;8.10;99.90;;;;;;5512915;25;19935;-73
2024/04/10 05:28:42;;;;;;;;;;;8.20;99.90;;;;;;5447453;26;19936;-73
2024/04/10 05:31:09;;;;;;;;;;;8.30;99.90;;;;;;5457079;26;20375;-72
2024/04/10 05:33:35;;;;;;;;;;;8.40;99.90;;;;;;5450343;26;19934;-73
2024/04/10 05:36:06;;;;;;;;;;;8.40;99.90;;;;;;5453327;26;19929;-72
2024/04/10 05:38:32;;;;;;;;;;;8.30;99.90;;;;;;5461799;26;19935;-73
2024/04/10 05:40:58;;;;;;;;;;;8.20;99.90;;;;;;5465812;26;19928;-73
2024/04/10 05:43:23;;;;;;;;;;;8.20;99.90;;;;;;5467029;26;19944;-73
2024/04/10 05:45:56;;;;;;;;;;;8.20;99.90;;;;;;5479301;26;20447;-73
2024/04/10 05:48:21;;;;;;;;;;;8.30;99.90;;;;;;5467974;26;19935;-74
2024/04/10 05:50:47;;;;;;;;;;;8.40;99.90;;;;;;5466970;26;19928;-72
2024/04/10 05:53:12;;;;;;;;;;;8.60;99.90;;;;;;5467822;26;19932;-72
2024/04/10 05:55:38;;;;;;;;;;;8.60;99.90;;;;;;5478131;26;19999;-73
2024/04/10 05:58:04;;;;;;;;;;;8.70;99.90;;;;;;5481814;26;19956;-72
2024/04/10 06:00:30;;;;;;;;;;;8.70;99.90;;;;;;5468845;26;19928;-72
2024/04/10 06:02:56;;;;;;;;;;;8.80;99.90;;;;;;5458463;26;19997;-72
2024/04/10 06:05:21;;;;;;;;;;;9.30;99.90;;;;;;5469148;26;21011;-72
2024/04/10 06:07:47;;;;;;;;;;;9.60;99.90;;;;;;5467525;26;19940;-72
2024/04/10 06:10:12;;;;;;;;;;;10.00;99.90;;;;;;5466678;26;19937;-72
2024/04/10 06:12:38;;;;;;;;;;;10.50;99.90;;;;;;5455676;26;19929;-74
2024/04/10 06:15:03;;;;;;;;;;;11.00;99.90;;;;;;5456014;26;19992;-73
2024/04/10 06:17:29;;;;;;;;;;;11.40;99.90;;;;;;5467380;26;19928;-72
2024/04/10 06:19:54;;;;;;;;;;;12.00;99.90;;;;;;5468528;26;19977;-74
2024/04/10 06:22:20;;;;;;;;;;;12.40;99.90;;;;;;5469754;26;19994;-74
2024/04/10 06:24:46;;;;;;;;;;;12.80;99.90;;;;;;5468793;26;19929;-72
2024/04/10 06:27:12;;;;;;;;;;;12.80;99.90;;;;;;5467509;26;19929;-72
2024/04/10 06:29:41;;;;;;;;;;;12.70;99.90;;;;;;5467993;26;19929;-73
2024/04/10 06:32:07;;;;;;;;;;;12.60;99.90;;;;;;5457282;26;19957;-73
2024/04/10 06:34:32;;;;;;;;;;;12.80;99.90;;;;;;5453136;26;19929;-73
2024/04/10 06:36:58;;;;;;;;;;;13.30;99.90;;;;;;5452044;26;19940;-73
2024/04/10 06:39:23;;;;;;;;;;;13.70;99.90;;;;;;5453221;26;19928;-73
2024/04/10 06:41:49;;;;;;;;;;;14.10;99.90;;;;;;5446011;26;19936;-72
2024/04/10 06:44:14;;;;;;;;;;;14.30;99.90;;;;;;5449318;26;19932;-73
2024/04/10 06:46:40;;;;;;;;;;;14.60;99.90;;;;;;5454071;26;19997;-73
2024/04/10 06:49:05;;;;;;;;;;;14.80;99.90;;;;;;5450889;26;20391;-74
2024/04/10 06:51:30;;;;;;;;;;;14.80;99.90;;;;;;5453904;26;19933;-73
2024/04/10 06:53:56;;;;;;;;;;;14.50;99.90;;;;;;5451648;26;19939;-73
2024/04/10 06:56:23;;;;;;;;;;;14.40;99.90;;;;;;5453357;26;19929;-73
2024/04/10 06:58:48;;;;;;;;;;;14.40;99.90;;;;;;5452311;26;19936;-74
2024/04/10 07:01:14;;;;;;;;;;;14.30;99.90;;;;;;5453301;26;19928;-73
2024/04/10 07:03:41;;;;;;;;;;;14.10;99.90;;;;;;5450541;26;19979;-73
2024/04/10 07:06:07;;;;;;;;;;;13.80;99.90;;;;;;5452620;26;19936;-72
2024/04/10 07:08:33;;;;;;;;;;;13.60;99.90;;;;;;5452263;26;20232;-73
2024/04/10 07:10:59;;;;;;;;;;;13.40;99.90;;;;;;5436917;26;19929;-73
2024/04/10 07:13:25;;;;;;;;;;;13.40;99.90;;;;;;5453240;26;19929;-73
2024/04/10 07:16:00;;;;;;;;;;;13.40;99.90;;;;;;5453571;26;19960;-73
2024/04/10 07:18:29;;;;;;;;;;;13.20;99.90;;;;;;5450717;26;20043;-72
2024/04/10 07:21:01;;;;;;;;;;;13.10;99.90;;;;;;5451358;26;19937;-73
2024/04/10 07:23:27;;;;;;;;;;;13.20;99.90;;;;;;5452636;26;19935;-74
2024/04/10 07:25:53;;;;;;;;;;;13.50;99.90;;;;;;5450041;26;19928;-73
2024/04/10 07:28:18;;;;;;;;;;;14.10;99.90;;;;;;5451380;26;20056;-74
2024/04/10 07:30:48;;;;;;;;;;;14.30;99.90;;;;;;5451388;26;20278;-74
2024/04/10 07:33:13;;;;;;;;;;;14.70;99.90;;;;;;5452523;26;19932;-73
2024/04/10 07:35:39;;;;;;;;;;;15.10;99.90;;;;;;5450583;26;19969;-73
2024/04/10 07:38:04;;;;;;;;;;;15.00;99.90;;;;;;5452270;26;19935;-73
2024/04/10 07:40:30;;;;;;;;;;;14.70;99.90;;;;;;5451924;26;19936;-73
2024/04/10 07:42:55;;;;;;;;;;;14.40;99.90;;;;;;5449235;26;19957;-73
2024/04/10 07:45:21;;;;;;;;;;;14.30;99.90;;;;;;5452657;26;20342;-73
2024/04/10 07:47:47;;;;;;;;;;;14.20;99.90;;;;;;5452645;26;20337;-73
2024/04/10 07:50:13;;;;;;;;;;;14.20;99.90;;;;;;5452558;26;20022;-72
2024/04/10 07:52:38;;;;;;;;;;;14.50;99.90;;;;;;5450730;26;19937;-73
2024/04/10 07:55:04;;;;;;;;;;;15.40;99.90;;;;;;5453185;26;19935;-72
2024/04/10 07:57:29;;;;;;;;;;;16.70;99.90;;;;;;5450393;26;19928;-73
2024/04/10 07:59:55;;;;;;;;;;;17.70;99.90;;;;;;5450454;26;19928;-73
2024/04/10 08:02:20;;;;;;;;;;;18.20;99.90;;;;;;5450835;26;19928;-72
2024/04/10 08:04:46;;;;;;;;;;;18.70;99.90;;;;;;5453718;26;19928;-72
2024/04/10 08:07:11;;;;;;;;;;;19.20;99.90;;;;;;5451802;26;19973;-73
2024/04/10 08:09:37;;;;;;;;;;;19.60;99.90;;;;;;5452354;26;20435;-72
2024/04/10 08:12:03;;;;;;;;;;;20.40;99.90;;;;;;5451850;26;19936;-74
2024/04/10 08:14:29;;;;;;;;;;;21.50;99.20;;;;;;5450679;26;20022;-73
2024/04/10 08:16:54;;;;;;;;;;;22.30;96.90;;;;;;5452109;26;20275;-75
2024/04/10 08:19:20;;;;;;;;;;;22.90;94.90;;;;;;5449585;26;19957;-73
2024/04/10 08:21:46;;;;;;;;;;;23.70;93.90;;;;;;5443955;26;19929;-69
2024/04/10 08:24:11;;;;;;;;;;;24.60;91.60;;;;;;5435324;26;20337;-73
2024/04/10 08:26:38;;;;;;;;;;;25.10;90.20;;;;;;5451345;26;20301;-73
2024/04/10 08:29:03;;;;;;;;;;;25.60;88.50;;;;;;5449753;26;20263;-73
2024/04/10 08:31:30;;;;;;;;;;;26.00;85.20;;;;;;5451778;26;19935;-75
2024/04/10 08:33:55;;;;;;;;;;;26.20;83.00;;;;;;5450487;26;20001;-72
2024/04/10 08:36:21;;;;;;;;;;;26.30;81.70;;;;;;5451024;26;20376;-74
2024/04/10 08:38:47;;;;;;;;;;;26.60;80.20;;;;;;5451191;26;19928;-73
2024/04/10 08:41:13;;;;;;;;;;;27.10;77.70;;;;;;5443339;26;20260;-74
2024/04/10 08:43:40;;;;;;;;;;;27.20;75.70;;;;;;5435932;26;19977;-74
2024/04/10 08:46:07;;;;;;;;;;;26.90;74.90;;;;;;5436228;26;19935;-74
2024/04/10 08:48:33;;;;;;;;;;;26.80;75.70;;;;;;5451159;26;19935;-74
2024/04/10 08:50:59;;;;;;;;;;;27.00;74.80;;;;;;5451769;26;19928;-73
2024/04/10 08:53:24;;;;;;;;;;;27.80;73.60;;;;;;5451420;26;19929;-71
2024/04/10 08:55:50;;;;;;;;;;;28.90;70.80;;;;;;5450253;26;20316;-69
2024/04/10 08:58:15;;;;;;;;;;;29.10;69.60;;;;;;5449724;26;20368;-72
2024/04/10 09:00:44;;;;;;;;;;;28.00;70.30;;;;;;5449868;26;19974;-72
2024/04/10 09:03:11;;;;;;;;;;;28.20;67.90;;;;;;5448719;26;19936;-73
2024/04/10 09:05:37;;;;;;;;;;;27.90;66.20;;;;;;5448966;26;19977;-74
2024/04/10 09:08:03;;;;;;;;;;;26.00;66.80;;;;;;5455906;26;20372;-72
2024/04/10 09:10:28;;;;;;;;;;;25.10;70.30;;;;;;5454449;26;19963;-72
2024/04/10 09:13:10;;;;;;;;;;;24.50;71.40;;;;;;5445038;26;19936;-73
2024/04/10 09:15:39;;;;;;;;;;;23.00;73.80;;;;;;5425935;26;20350;-74
2024/04/10 09:18:08;;;;;;;;;;;21.50;76.40;;;;;;5443600;26;19930;-71
2024/04/10 09:20:33;;;;;;;;;;;20.40;79.40;;;;;;5449199;26;19936;-72
2024/04/10 09:23:06;;;;;;;;;;;19.60;82.40;;;;;;5450433;26;20386;-74
2024/04/10 09:25:32;;;;;;;;;;;19.20;83.00;;;;;;5450799;26;19935;-74
2024/04/10 09:28:02;;;;;;;;;;;18.60;84.00;;;;;;5473278;26;20287;-73
2024/04/10 09:30:28;;;;;;;;;;;18.20;84.50;;;;;;5450836;26;20309;-73
2024/04/10 09:32:54;;;;;;;;;;;17.90;85.90;;;;;;5450126;26;19940;-73
2024/04/10 09:35:20;;;;;;;;;;;17.60;88.00;;;;;;5449077;26;19929;-73
2024/04/10 09:37:48;;;;;;;;;;;17.30;88.30;;;;;;5448586;26;19929;-74
2024/04/10 09:40:14;;;;;;;;;;;16.90;90.40;;;;;;5448217;26;19932;-74
2024/04/10 09:42:46;;;;;;;;;;;16.80;90.90;;;;;;5448175;26;19978;-74
2024/04/10 09:45:15;;;;;;;;;;;16.90;90.30;;;;;;5450525;26;19936;-73
2024/04/10 09:47:43;;;;;;;;;;;17.00;90.10;;;;;;5450534;26;20260;-74
2024/04/10 09:50:10;;;;;;;;;;;17.10;90.40;;;;;;5448398;26;19935;-73
2024/04/10 09:52:36;;;;;;;;;;;17.20;87.60;;;;;;5426474;26;19961;-75
2024/04/10 09:55:02;;;;;;;;;;;16.90;85.10;;;;;;5443919;26;19972;-73
2024/04/10 09:57:29;;;;;;;;;;;16.70;87.10;;;;;;5445233;26;19936;-76
2024/04/10 09:59:55;;;;;;;;;;;16.70;87.50;;;;;;5450832;26;19937;-74
2024/04/10 10:02:20;;;;;;;;;;;16.80;87.80;;;;;;5448851;26;19934;-74
2024/04/10 10:04:46;;;;;;;;;;;16.80;87.80;;;;;;5450458;26;19940;-74
2024/04/10 10:07:23;;;;;;;;;;;16.70;88.50;;;;;;5449198;26;19944;-74
2024/04/10 10:09:50;;;;;;;;;;;16.80;88.10;;;;;;5453980;26;19935;-72
2024/04/10 10:12:28;;;;;;;;;;;16.90;88.00;;;;;;5451936;26;19929;-74
2024/04/10 10:14:53;;;;;;;;;;;17.00;88.10;;;;;;5447743;26;19940;-74
2024/04/10 10:17:24;;;;;;;;;;;17.10;88.10;;;;;;5452117;26;19940;-73
2024/04/10 10:19:49;;;;;;;;;;;17.40;87.90;;;;;;5450762;26;19996;-72
2024/04/10 10:22:15;;;;;;;;;;;17.50;88.20;;;;;;5452134;26;19937;-75
2024/04/10 10:24:40;;;;;;;;;;;17.60;88.30;;;;;;5453346;26;20003;-75
2024/04/10 10:27:06;;;;;;;;;;;17.60;85.10;;;;;;5431641;26;19936;-73
2024/04/10 10:29:31;;;;;;;;;;;17.40;85.60;;;;;;5437492;26;20369;-73
2024/04/10 10:32:07;;;;;;;;;;;17.10;84.30;;;;;;5453776;26;19933;-73
2024/04/10 10:34:33;;;;;;;;;;;16.80;85.00;;;;;;5453349;26;19928;-74
2024/04/10 10:37:02;;;;;;;;;;;16.60;85.20;;;;;;5453351;26;19957;-73
2024/04/10 10:39:28;;;;;;;;;;;16.50;85.40;;;;;;5452608;26;19944;-73
2024/04/10 10:42:03;;;;;;;;;;;16.40;86.20;;;;;;5452209;26;20259;-73
2024/04/10 10:44:29;;;;;;;;;;;16.30;87.10;;;;;;5453080;26;19944;-73
2024/04/10 10:46:57;;;;;;;;;;;16.30;87.60;;;;;;5453143;26;20491;-74
2024/04/10 10:49:26;;;;;;;;;;;16.20;87.70;;;;;;5450831;26;19928;-73
2024/04/10 10:51:56;;;;;;;;;;;16.40;87.60;;;;;;5451806;26;19997;-73
2024/04/10 10:54:21;;;;;;;;;;;16.40;88.00;;;;;;5453383;26;20351;-72
2024/04/10 10:56:47;;;;;;;;;;;16.30;85.20;;;;;;5453205;26;19928;-74
2024/04/10 10:59:14;;;;;;;;;;;16.10;84.60;;;;;;5448146;26;19937;-74
2024/04/10 11:01:40;;;;;;;;;;;16.00;85.50;;;;;;5451347;26;20005;-73
2024/04/10 11:04:08;;;;;;;;;;;16.00;87.00;;;;;;5462573;26;19936;-74
2024/04/10 11:06:34;;;;;;;;;;;16.10;86.20;;;;;;5464692;26;19980;-73
2024/04/10 11:09:09;;;;;;;;;;;16.20;86.30;;;;;;5453030;26;20378;-73
2024/04/10 11:11:38;;;;;;;;;;;16.30;86.20;;;;;;5445221;26;19929;-73
2024/04/10 11:14:03;;;;;;;;;;;16.20;86.90;;;;;;5451496;26;19935;-73
2024/04/10 11:16:33;;;;;;;;;;;16.30;86.50;;;;;;5448235;26;19941;-73
2024/04/10 11:18:59;;;;;;;;;;;16.10;87.80;;;;;;5452091;26;19928;-73
2024/04/10 11:21:25;;;;;;;;;;;16.20;89.40;;;;;;5452971;26;19935;-73
2024/04/10 11:23:51;;;;;;;;;;;16.20;88.50;;;;;;5451289;26;19928;-73
2024/04/10 11:26:17;;;;;;;;;;;16.20;88.70;;;;;;5450923;26;19960;-73
2024/04/10 11:28:43;;;;;;;;;;;16.40;88.50;;;;;;5444784;26;19929;-74
2024/04/10 11:31:10;;;;;;;;;;;16.60;85.30;;;;;;5443866;26;19938;-73
2024/04/10 11:33:36;;;;;;;;;;;16.70;84.40;;;;;;5450229;26;20263;-73
2024/04/10 11:36:02;;;;;;;;;;;16.80;83.40;;;;;;5452101;26;19929;-72
2024/04/10 11:38:27;;;;;;;;;;;16.70;82.50;;;;;;5452940;26;20324;-73
2024/04/10 11:40:53;;;;;;;;;;;16.70;81.40;;;;;;5451629;26;19929;-73
2024/04/10 11:43:18;;;;;;;;;;;16.60;81.50;;;;;;5452789;26;20329;-72
2024/04/10 11:45:46;;;;;;;;;;;16.60;82.00;;;;;;5450657;26;19932;-73
2024/04/10 11:48:11;;;;;;;;;;;16.40;82.90;;;;;;5452952;26;20288;-74
2024/04/10 11:50:37;;;;;;;;;;;16.40;83.20;;;;;;5450424;26;19931;-73
2024/04/10 11:53:02;;;;;;;;;;;16.50;83.50;;;;;;5450989;26;20387;-72
2024/04/10 11:55:28;;;;;;;;;;;16.60;84.30;;;;;;5451958;26;19928;-74
2024/04/10 11:57:54;;;;;;;;;;;16.90;85.40;;;;;;5450726;26;20419;-73
2024/04/10 12:00:19;;;;;;;;;;;17.20;84.90;;;;;;5451022;26;20368;-72
2024/04/10 12:02:45;;;;;;;;;;;17.30;83.40;;;;;;5450881;26;19936;-74
2024/04/10 12:05:11;;;;;;;;;;;17.30;83.20;;;;;;5452455;26;19929;-75
2024/04/10 12:07:36;;;;;;;;;;;17.20;84.00;;;;;;5444189;26;19979;-74
2024/04/10 12:10:04;;;;;;;;;;;17.40;83.10;;;;;;5441569;26;19997;-75
2024/04/10 12:12:30;;;;;;;;;;;17.20;83.60;;;;;;5452564;26;19933;-73
2024/04/10 12:14:56;;;;;;;;;;;17.20;84.50;;;;;;5451875;26;19933;-75
2024/04/10 12:17:21;;;;;;;;;;;17.00;84.50;;;;;;5452625;26;20375;-74
2024/04/10 12:19:47;;;;;;;;;;;16.80;85.50;;;;;;5475597;26;19935;-72
2024/04/10 12:22:12;;;;;;;;;;;17.00;85.40;;;;;;5452800;26;20364;-72
2024/04/10 12:24:38;;;;;;;;;;;16.90;86.70;;;;;;5445877;26;19937;-73
2024/04/10 12:27:04;;;;;;;;;;;16.70;86.80;;;;;;5444996;26;19929;-72
2024/04/10 12:29:29;;;;;;;;;;;16.60;86.30;;;;;;5439806;26;20375;-73
2024/04/10 12:31:55;;;;;;;;;;;16.50;86.10;;;;;;5452075;26;19929;-73
2024/04/10 12:34:21;;;;;;;;;;;16.40;85.90;;;;;;5466979;26;20351;-73
2024/04/10 12:39:33;;;;;;;;;;;16.40;86.30;;;;;;5451164;26;20272;-74
2024/04/10 12:41:58;;;;;;;;;;;16.40;85.30;;;;;;5452947;26;19929;-72
2024/04/10 12:44:24;;;;;;;;;;;16.40;85.50;;;;;;5452103;26;20378;-74
2024/04/10 12:46:53;;;;;;;;;;;16.50;84.70;;;;;;5451987;26;20007;-75
2024/04/10 12:49:19;;;;;;;;;;;16.60;84.00;;;;;;5444003;26;19929;-72
2024/04/10 12:51:45;;;;;;;;;;;16.90;84.60;;;;;;5450539;26;19934;-74
2024/04/10 12:54:10;;;;;;;;;;;17.10;83.90;;;;;;5451903;26;19928;-74
2024/04/10 12:56:36;;;;;;;;;;;17.30;82.70;;;;;;5443793;26;20403;-73
2024/04/10 12:59:01;;;;;;;;;;;17.60;82.70;;;;;;5448117;26;19934;-72
2024/04/10 13:01:27;;;;;;;;;;;17.90;81.80;;;;;;5452374;26;19935;-72
2024/04/10 13:03:53;;;;;;;;;;;18.20;81.10;;;;;;5451974;26;20275;-74
2024/04/10 13:06:21;;;;;;;;;;;18.30;81.10;;;;;;5470276;26;19956;-71
2024/04/10 13:08:47;;;;;;;;;;;18.40;80.80;;;;;;5454189;26;19928;-73
2024/04/10 13:11:14;;;;;;;;;;;18.00;80.70;;;;;;5459093;26;19936;-73
2024/04/10 13:13:40;;;;;;;;;;;17.70;80.60;;;;;;5449067;26;20375;-73
2024/04/10 13:16:06;;;;;;;;;;;17.60;81.50;;;;;;5451201;26;19929;-73
2024/04/10 13:18:32;;;;;;;;;;;17.60;81.70;;;;;;5450557;26;19928;-73
2024/04/10 13:20:57;;;;;;;;;;;17.70;81.80;;;;;;5451295;26;19936;-73
2024/04/10 13:23:25;;;;;;;;;;;17.70;79.90;;;;;;5448947;26;19928;-73
2024/04/10 13:26:00;;;;;;;;;;;17.50;80.10;;;;;;5451272;26;19996;-75
2024/04/10 13:28:26;;;;;;;;;;;17.40;79.70;;;;;;5449693;26;19936;-73
2024/04/10 13:30:51;;;;;;;;;;;17.50;79.80;;;;;;5449011;26;19928;-73
2024/04/10 13:33:17;;;;;;;;;;;17.60;80.10;;;;;;5448294;26;19937;-72
2024/04/10 13:35:42;;;;;;;;;;;17.60;79.50;;;;;;5450974;26;20450;-73
2024/04/10 13:38:08;;;;;;;;;;;17.60;79.50;;;;;;5449477;26;19928;-73
2024/04/10 13:40:33;;;;;;;;;;;17.80;79.40;;;;;;5451814;26;20368;-73
2024/04/10 13:42:59;;;;;;;;;;;18.20;78.30;;;;;;5452537;26;19928;-74
2024/04/10 13:45:24;;;;;;;;;;;18.00;79.10;;;;;;5455144;26;19998;-73
2024/04/10 13:47:50;;;;;;;;;;;17.90;78.90;;;;;;5445596;26;19936;-73
2024/04/10 13:50:15;;;;;;;;;;;17.70;80.50;;;;;;5439124;26;19936;-74
2024/04/10 13:52:41;;;;;;;;;;;17.60;79.40;;;;;;5454570;26;19928;-73
2024/04/10 13:55:07;;;;;;;;;;;17.50;79.70;;;;;;5454551;26;19978;-73
2024/04/10 13:57:32;;;;;;;;;;;17.50;79.50;;;;;;5453997;26;20249;-74
2024/04/10 13:59:58;;;;;;;;;;;17.70;78.90;;;;;;5453739;26;19947;-72
2024/04/10 14:02:23;;;;;;;;;;;17.80;78.40;;;;;;5436045;26;19928;-73
2024/04/10 14:04:52;;;;;;;;;;;17.60;79.00;;;;;;5452646;26;19940;-72
2024/04/10 14:07:18;;;;;;;;;;;17.30;80.10;;;;;;5454009;26;19928;-74
2024/04/10 14:09:43;;;;;;;;;;;16.90;80.40;;;;;;5452170;26;20289;-75
2024/04/10 14:12:09;;;;;;;;;;;16.70;80.60;;;;;;5454178;26;19928;-74
2024/04/10 14:14:34;;;;;;;;;;;16.70;81.20;;;;;;5451766;26;19934;-74
2024/04/10 14:17:01;;;;;;;;;;;17.00;81.20;;;;;;5452455;26;19936;-74
2024/04/10 14:19:27;;;;;;;;;;;17.00;80.50;;;;;;5451597;26;21752;-74
2024/04/10 14:21:52;;;;;;;;;;;17.10;80.00;;;;;;5454550;26;19969;-74